Time;durP1;ratioP1;P1;durP2;ratioP2;P2;SDS_P1;SDS_P2;PMS_P1;PMS_P2;Temp;Humidity;BMP_temperature;BMP_pressure;BME280_temperature;BME280_humidity;BME280_pressure;Samples;Min_cycle;Max_cycle;Signal;HPM_P1;HPM_P2
2022/01/28 00:00:41;;;;;;;22.33;13.82;;;1.10;99.90;;;1.36;100.00;97446.84;5021762;28;117648;-69
2022/01/28 00:03:10;;;;;;;23.65;13.57;;;1.10;99.90;;;1.39;100.00;97445.47;5020504;28;116471;-70
2022/01/28 00:05:40;;;;;;;26.10;12.95;;;1.10;99.90;;;1.31;100.00;97443.50;5022436;28;128993;-70
2022/01/28 00:08:09;;;;;;;24.23;14.68;;;1.10;99.90;;;1.43;100.00;97436.53;5020685;28;129679;-70
2022/01/28 00:10:39;;;;;;;23.90;13.98;;;1.10;99.90;;;1.36;100.00;97446.84;5036107;27;118727;-70
2022/01/28 00:16:26;;;;;;;27.30;14.33;;;1.10;99.90;;;1.19;100.00;97436.00;5013457;28;129878;-70
2022/01/28 00:38:10;;;;;;;27.60;14.82;;;1.10;99.90;;;1.44;100.00;97422.06;5001855;28;129425;-70
2022/01/28 00:40:39;;;;;;;22.10;13.05;;;1.10;99.90;;;1.41;100.00;97414.66;5019566;28;130269;-70
2022/01/28 00:43:07;;;;;;;27.25;14.77;;;1.10;99.90;;;1.43;100.00;97422.38;5021350;28;119492;-70
2022/01/28 00:45:37;;;;;;;23.15;13.30;;;1.10;99.90;;;1.44;100.00;97405.25;5020299;28;115875;-70
2022/01/28 00:48:06;;;;;;;22.30;12.57;;;1.10;99.90;;;1.30;100.00;97399.94;5022803;28;130366;-70
2022/01/28 00:50:34;;;;;;;25.95;12.45;;;1.10;99.90;;;1.29;100.00;97403.69;5020948;28;129713;-70
2022/01/28 00:53:03;;;;;;;22.58;13.65;;;1.10;99.90;;;1.35;100.00;97397.16;5023609;28;118373;-70
2022/01/28 00:55:31;;;;;;;24.30;12.95;;;1.00;99.90;;;1.16;100.00;97399.97;5020715;28;116290;-70
2022/01/28 00:58:00;;;;;;;22.88;12.32;;;1.00;99.90;;;1.26;100.00;97393.63;5037172;27;129933;-70
2022/01/28 01:00:28;;;;;;;21.05;11.90;;;1.00;99.90;;;1.15;100.00;97392.28;5024521;28;129894;-70
2022/01/28 01:02:59;;;;;;;23.30;12.80;;;1.00;99.90;;;1.18;100.00;97392.44;5023480;28;118752;-70
2022/01/28 01:05:30;;;;;;;24.50;12.82;;;1.00;99.90;;;1.11;100.00;97381.41;5023113;28;116070;-70
2022/01/28 01:07:59;;;;;;;22.33;12.07;;;0.90;99.90;;;1.24;100.00;97379.78;5023536;28;131442;-70
2022/01/28 01:10:28;;;;;;;20.45;11.60;;;0.90;99.90;;;1.12;100.00;97374.94;5022928;28;130132;-70
2022/01/28 01:12:56;;;;;;;22.27;12.25;;;0.90;99.90;;;1.14;100.00;97374.66;5023729;28;118788;-70
2022/01/28 01:15:30;;;;;;;21.40;11.25;;;0.90;99.90;;;1.19;100.00;97377.22;5025791;28;116299;-69
2022/01/28 01:18:06;;;;;;;21.75;11.82;;;1.00;99.90;;;1.15;100.00;97376.25;5025183;28;128728;-70
2022/01/28 01:20:57;;;;;;;23.60;13.68;;;1.00;99.90;;;1.14;100.00;97363.97;5024370;28;130902;-70
2022/01/28 01:23:29;;;;;;;23.27;12.35;;;1.00;99.90;;;1.23;100.00;97372.84;5023017;28;118904;-70
2022/01/28 01:26:06;;;;;;;24.27;12.70;;;1.00;99.90;;;1.18;100.00;97359.59;5023788;28;115890;-70
2022/01/28 01:28:39;;;;;;;23.67;12.68;;;1.00;99.90;;;1.26;100.00;97356.19;5022264;28;130208;-70
2022/01/28 01:31:14;;;;;;;25.40;12.93;;;1.10;99.90;;;1.25;100.00;97360.78;5016224;28;129741;-70
2022/01/28 01:33:49;;;;;;;22.98;12.55;;;1.00;99.90;;;1.27;100.00;97352.44;5025460;28;119160;-70
2022/01/28 01:36:17;;;;;;;19.50;12.10;;;1.10;99.90;;;1.35;100.00;97354.38;5022705;28;116065;-70
2022/01/28 01:38:46;;;;;;;25.77;14.00;;;1.10;99.90;;;1.32;100.00;97357.66;5022972;28;130399;-70
2022/01/28 01:41:24;;;;;;;28.63;14.10;;;1.10;99.90;;;1.41;100.00;97347.84;5022483;28;129688;-70
2022/01/28 01:43:58;;;;;;;25.42;14.20;;;1.10;99.90;;;1.41;100.00;97347.06;5019223;28;119287;-70
2022/01/28 01:46:39;;;;;;;28.55;15.13;;;1.20;99.90;;;1.43;100.00;97328.81;5024894;28;116317;-70
2022/01/28 01:52:04;;;;;;;24.98;13.80;;;1.20;99.90;;;1.36;100.00;97323.91;5019179;28;129673;-70
2022/01/28 01:54:38;;;;;;;23.25;12.48;;;1.20;99.90;;;1.33;100.00;97323.72;5024698;28;118795;-71
2022/01/28 01:57:09;;;;;;;27.10;14.27;;;1.20;99.90;;;1.53;100.00;97322.47;5024996;28;114962;-70
2022/01/28 01:59:39;;;;;;;26.23;14.07;;;1.20;99.90;;;1.58;100.00;97327.66;5022042;28;128051;-70
2022/01/28 02:02:08;;;;;;;29.02;14.95;;;1.20;99.90;;;1.65;100.00;97329.91;5023672;28;130361;-70
2022/01/28 02:04:38;;;;;;;26.83;15.30;;;1.30;99.90;;;1.65;100.00;97330.69;5025461;28;118600;-70
2022/01/28 02:07:08;;;;;;;30.13;15.95;;;1.30;99.90;;;1.46;100.00;97327.44;5022812;28;115754;-70
2022/01/28 02:09:36;;;;;;;29.38;16.25;;;1.20;99.90;;;1.38;100.00;97311.03;5021781;27;129797;-69
2022/01/28 02:12:08;;;;;;;33.53;16.75;;;1.20;99.90;;;1.50;100.00;97307.03;5022785;28;129641;-70
2022/01/28 02:14:36;;;;;;;31.52;16.95;;;1.30;99.90;;;1.40;100.00;97308.03;5023040;28;118852;-70
2022/01/28 02:17:07;;;;;;;33.30;17.90;;;1.30;99.90;;;1.33;100.00;97313.81;5024348;28;116477;-70
2022/01/28 02:19:38;;;;;;;31.83;17.05;;;1.30;99.90;;;1.41;100.00;97309.63;5022289;28;130800;-70
2022/01/28 02:22:09;;;;;;;32.88;18.10;;;1.30;99.90;;;1.34;100.00;97309.25;5024112;28;129449;-70
2022/01/28 02:24:42;;;;;;;31.83;17.88;;;1.30;99.90;;;1.43;100.00;97291.41;5022441;28;119309;-70
2022/01/28 02:27:14;;;;;;;31.75;16.92;;;1.30;99.90;;;1.38;100.00;97294.97;5022530;28;115836;-70
2022/01/28 02:29:44;;;;;;;33.83;20.00;;;1.30;99.90;;;1.29;100.00;97296.81;5040371;27;129468;-70
2022/01/28 02:32:13;;;;;;;30.63;17.15;;;1.30;99.90;;;1.47;100.00;97291.59;5023212;28;130449;-70
2022/01/28 02:34:41;;;;;;;35.42;19.70;;;1.30;99.90;;;1.55;100.00;97288.19;5025015;28;118743;-70
2022/01/28 02:37:11;;;;;;;31.83;18.25;;;1.40;99.90;;;1.37;100.00;97290.75;5022526;28;115833;-70
2022/01/28 02:39:40;;;;;;;34.67;18.75;;;1.30;99.90;;;1.47;100.00;97287.03;5023398;28;128781;-70
2022/01/28 02:42:18;;;;;;;36.20;19.58;;;1.40;99.90;;;1.43;100.00;97300.22;5023708;28;128644;-70
2022/01/28 02:44:49;;;;;;;40.03;19.17;;;1.40;99.90;;;1.39;100.00;97287.78;5037688;27;118780;-70
2022/01/28 02:47:30;;;;;;;31.55;18.08;;;1.40;99.90;;;1.38;100.00;97289.63;5022182;28;115908;-70
2022/01/28 02:49:58;;;;;;;35.97;18.95;;;1.30;99.90;;;1.39;100.00;97291.22;5023584;28;128645;-70
2022/01/28 02:52:36;;;;;;;33.63;18.65;;;1.40;99.90;;;1.47;100.00;97280.91;5023531;28;130932;-69
2022/01/28 02:55:10;;;;;;;35.08;18.30;;;1.40;99.90;;;1.65;100.00;97276.41;5024060;28;118920;-69
2022/01/28 02:57:44;;;;;;;32.53;17.75;;;1.40;99.90;;;1.40;100.00;97282.13;5021857;28;116271;-69
2022/01/28 03:00:13;;;;;;;36.13;18.15;;;1.40;99.90;;;1.48;100.00;97275.25;5005926;28;129418;-69
2022/01/28 03:02:42;;;;;;;32.38;18.38;;;1.40;99.90;;;1.49;100.00;97273.34;5021137;28;129312;-69
2022/01/28 03:05:30;;;;;;;37.00;18.92;;;1.40;99.90;;;1.49;100.00;97270.69;5021397;28;120793;-69
2022/01/28 03:08:02;;;;;;;32.65;17.50;;;1.40;99.90;;;1.40;100.00;97274.09;5019925;28;115920;-69
2022/01/28 03:10:41;;;;;;;34.72;18.95;;;1.40;99.90;;;1.56;100.00;97273.72;5020861;28;129923;-69
2022/01/28 03:13:28;;;;;;;34.80;17.23;;;1.40;99.90;;;1.59;100.00;97273.06;5020989;28;129924;-70
2022/01/28 03:16:07;;;;;;;32.53;18.27;;;1.40;99.90;;;1.63;100.00;97283.97;5016496;28;118961;-69
2022/01/28 03:18:47;;;;;;;34.78;19.20;;;1.40;99.90;;;1.62;100.00;97269.78;5022042;28;116744;-70
2022/01/28 03:21:36;;;;;;;33.08;18.38;;;1.40;99.90;;;1.56;100.00;97263.81;5020781;28;129438;-70
2022/01/28 03:24:09;;;;;;;31.92;18.65;;;1.30;99.90;;;1.64;100.00;97264.13;5021209;28;129697;-69
2022/01/28 03:26:37;;;;;;;33.35;18.08;;;1.40;99.90;;;1.63;100.00;97255.34;5024062;28;118996;-69
2022/01/28 03:29:06;;;;;;;36.03;19.13;;;1.40;99.90;;;1.57;100.00;97248.53;5024201;28;115348;-69
2022/01/28 03:31:38;;;;;;;30.40;16.58;;;1.40;99.90;;;1.56;100.00;97252.34;5019837;28;129795;-70
2022/01/28 03:34:06;;;;;;;35.00;19.00;;;1.40;99.90;;;1.62;100.00;97251.06;5022260;28;129867;-69
2022/01/28 03:36:35;;;;;;;29.63;16.77;;;1.40;99.90;;;1.61;100.00;97246.84;5019375;28;119995;-69
2022/01/28 03:39:08;;;;;;;31.90;17.98;;;1.40;99.90;;;1.58;100.00;97242.13;5021038;28;115799;-69
2022/01/28 03:41:36;;;;;;;30.45;17.10;;;1.30;99.90;;;1.60;100.00;97242.59;5021811;28;130020;-69
2022/01/28 03:44:06;;;;;;;28.00;16.73;;;1.30;99.90;;;1.62;100.00;97251.06;5019443;28;130602;-69
2022/01/28 03:46:35;;;;;;;31.67;17.85;;;1.30;99.90;;;1.66;100.00;97236.00;5019585;28;118763;-68
2022/01/28 03:49:05;;;;;;;30.80;17.00;;;1.40;99.90;;;1.68;100.00;97233.81;5020697;28;115607;-69
2022/01/28 03:51:34;;;;;;;30.85;17.33;;;1.40;99.90;;;1.69;100.00;97234.63;5020464;28;129951;-69
2022/01/28 03:54:03;;;;;;;26.73;15.43;;;1.40;99.90;;;1.66;100.00;97225.31;5019743;28;130643;-69
2022/01/28 03:56:34;;;;;;;30.73;17.15;;;1.40;99.90;;;1.56;100.00;97230.94;5017810;28;118934;-68
2022/01/28 03:59:02;;;;;;;26.77;16.00;;;1.40;99.90;;;1.58;100.00;97231.41;5021377;28;116440;-69
2022/01/28 04:01:35;;;;;;;30.45;17.42;;;1.40;99.90;;;1.74;100.00;97227.22;5034505;27;129717;-69
2022/01/28 04:04:48;;;;;;;31.73;16.73;;;1.40;99.90;;;1.80;100.00;97223.31;5020170;28;130211;-69
2022/01/28 04:12:49;;;;;;;30.20;16.85;;;1.50;99.90;;;1.92;100.00;97229.97;5014853;28;130589;-70
2022/01/28 04:15:34;;;;;;;34.03;16.73;;;1.50;99.90;;;1.89;100.00;97228.69;5020599;28;132321;-69
2022/01/28 04:18:03;;;;;;;30.40;16.45;;;1.50;99.90;;;1.84;100.00;97230.72;5016856;28;118667;-69
2022/01/28 04:20:32;;;;;;;32.22;16.63;;;1.60;99.90;;;1.74;100.00;97224.53;5018114;28;115956;-68
2022/01/28 04:23:00;;;;;;;32.13;16.65;;;1.60;99.90;;;1.72;100.00;97229.44;5022119;28;129913;-69
2022/01/28 04:25:29;;;;;;;32.50;17.80;;;1.50;99.90;;;1.74;100.00;97227.22;5019207;28;131544;-68
2022/01/28 04:27:59;;;;;;;29.90;16.13;;;1.50;99.90;;;1.88;100.00;97231.69;5021823;28;118450;-69
2022/01/28 04:30:28;;;;;;;33.95;16.90;;;1.60;99.90;;;1.90;100.00;97234.84;5020438;28;115848;-68
2022/01/28 04:32:57;;;;;;;31.70;17.20;;;1.60;99.90;;;1.92;100.00;97238.00;5019665;27;130084;-68
2022/01/28 04:35:25;;;;;;;28.40;16.23;;;1.60;99.90;;;1.93;100.00;97223.50;5022655;28;129777;-68
2022/01/28 04:38:05;;;;;;;31.83;16.27;;;1.70;99.90;;;1.91;100.00;97225.72;5025811;28;120288;-68
2022/01/28 04:40:39;;;;;;;27.10;16.00;;;1.60;99.90;;;1.87;100.00;97220.22;5024485;28;118459;-68
2022/01/28 04:43:15;;;;;;;33.35;16.60;;;1.70;99.90;;;1.83;100.00;97218.47;5021831;28;130483;-68
2022/01/28 04:45:50;;;;;;;27.92;14.90;;;1.60;99.90;;;1.86;100.00;97215.16;5017334;28;130652;-68
2022/01/28 04:48:26;;;;;;;32.10;16.00;;;1.60;99.90;;;1.78;100.00;97216.72;5022612;28;118625;-68
2022/01/28 04:51:09;;;;;;;32.05;17.35;;;1.60;99.90;;;1.98;100.00;97220.72;5023254;28;116141;-67
2022/01/28 04:54:02;;;;;;;26.25;15.70;;;1.70;99.90;;;1.71;100.00;97217.16;5023697;28;130832;-68
2022/01/28 04:56:44;;;;;;;27.10;14.23;;;1.60;99.90;;;1.80;100.00;97215.28;5021155;28;129735;-67
2022/01/28 04:59:36;;;;;;;25.42;14.35;;;1.70;99.90;;;1.86;100.00;97205.25;5023424;28;119057;-68
2022/01/28 05:05:09;;;;;;;28.02;15.52;;;1.70;99.90;;;1.91;100.00;97209.66;5014875;28;129969;-67
2022/01/28 05:07:49;;;;;;;;;;;1.70;99.90;;;1.85;100.00;97200.22;5022734;28;130837;-68
2022/01/28 05:10:48;;;;;;;24.88;13.90;;;1.70;99.90;;;1.89;100.00;97198.50;5024549;28;117861;-67
2022/01/28 05:27:18;;;;;;;24.92;14.05;;;1.70;99.90;;;1.80;100.00;97177.06;5017846;27;130126;-70
2022/01/28 05:29:47;;;;;;;23.25;13.27;;;1.70;99.90;;;1.80;100.00;97177.84;5015310;28;130369;-70
2022/01/28 05:32:17;;;;;;;26.95;15.20;;;1.70;99.90;;;1.83;100.00;97162.28;5021701;28;119728;-70
2022/01/28 05:34:47;;;;;;;25.58;14.98;;;1.70;99.90;;;1.95;100.00;97170.50;5016836;28;115824;-70
2022/01/28 05:37:15;;;;;;;30.08;16.52;;;1.70;99.90;;;1.83;100.00;97175.66;5021485;28;130144;-70
2022/01/28 05:39:44;;;;;;;28.15;16.10;;;1.70;99.90;;;1.87;100.00;97171.25;5024081;28;129671;-70
2022/01/28 05:42:13;;;;;;;26.65;14.40;;;1.70;99.90;;;1.69;100.00;97171.22;5023969;28;119343;-70
2022/01/28 05:44:41;;;;;;;29.70;16.15;;;1.70;99.90;;;1.90;100.00;97175.97;5040670;27;116044;-70
2022/01/28 05:47:14;;;;;;;29.98;15.20;;;1.70;99.90;;;1.92;100.00;97171.13;5021484;28;129925;-70
2022/01/28 05:49:45;;;;;;;32.92;15.27;;;1.70;99.90;;;1.91;100.00;97162.28;5023380;27;129994;-70
2022/01/28 05:52:13;;;;;;;29.98;15.23;;;1.70;99.90;;;1.84;100.00;97161.19;5023510;28;118933;-70
2022/01/28 05:54:42;;;;;;;30.35;15.73;;;1.70;99.90;;;1.92;100.00;97169.22;5022318;28;115599;-70
2022/01/28 05:57:10;;;;;;;32.40;15.90;;;1.70;99.90;;;1.90;100.00;97173.31;5022051;28;130722;-70
2022/01/28 05:59:39;;;;;;;31.33;15.43;;;1.70;99.90;;;1.94;100.00;97176.94;5021443;28;129625;-70
2022/01/28 06:02:07;;;;;;;32.20;15.50;;;1.70;99.90;;;1.83;100.00;97173.78;5021699;28;119155;-70
2022/01/28 06:04:37;;;;;;;26.80;14.48;;;1.70;99.90;;;1.88;100.00;97167.50;5021610;28;115740;-73
2022/01/28 06:07:07;;;;;;;29.77;15.48;;;1.70;99.90;;;1.98;100.00;97172.56;5021534;28;130981;-70
2022/01/28 06:09:35;;;;;;;22.33;13.77;;;1.70;99.90;;;1.96;100.00;97177.41;5021376;28;129941;-70
2022/01/28 06:12:05;;;;;;;23.92;14.80;;;1.80;99.90;;;2.07;100.00;97168.00;5021791;28;118941;-71
2022/01/28 06:14:33;;;;;;;26.65;15.30;;;1.70;99.90;;;2.12;100.00;97173.22;5021735;28;118714;-71
2022/01/28 06:17:03;;;;;;;25.80;14.48;;;1.80;99.90;;;1.95;100.00;97168.63;5021600;28;129653;-71
2022/01/28 06:19:31;;;;;;;23.50;14.05;;;1.70;99.90;;;1.99;100.00;97168.78;5021010;28;131480;-71
2022/01/28 06:22:00;;;;;;;25.80;14.57;;;1.70;99.90;;;2.09;100.00;97163.13;5020799;28;118764;-70
2022/01/28 06:24:30;;;;;;;22.88;14.02;;;1.70;99.90;;;2.14;100.00;97154.94;5022265;28;116030;-71
2022/01/28 06:26:59;;;;;;;28.20;15.60;;;1.80;99.90;;;2.16;100.00;97154.63;5021331;28;130504;-71
2022/01/28 06:29:27;;;;;;;25.58;14.60;;;1.80;99.90;;;2.12;100.00;97154.47;5022378;28;128549;-71
2022/01/28 06:31:56;;;;;;;23.83;13.88;;;1.70;99.90;;;2.13;100.00;97153.34;5024409;28;119026;-70
2022/01/28 06:34:24;;;;;;;23.20;14.32;;;1.70;99.90;;;2.13;100.00;97153.34;5024637;28;115600;-71
2022/01/28 06:36:53;;;;;;;23.52;13.73;;;1.70;99.90;;;2.12;100.00;97151.81;5022272;28;130589;-69
2022/01/28 06:39:21;;;;;;;25.95;14.45;;;1.70;99.90;;;2.26;100.00;97158.88;5018969;28;129957;-71
2022/01/28 06:41:52;;;;;;;24.65;14.32;;;1.80;99.90;;;2.23;100.00;97156.84;5018733;28;118720;-70
2022/01/28 06:44:20;;;;;;;26.50;14.07;;;1.80;99.90;;;2.41;100.00;97153.06;5019808;28;117236;-71
2022/01/28 06:46:49;;;;;;;25.73;13.60;;;1.80;99.90;;;2.26;100.00;97153.53;5021133;28;130042;-72
2022/01/28 06:49:18;;;;;;;24.92;13.60;;;1.80;99.90;;;2.07;100.00;97148.47;5020593;28;130138;-72
2022/01/28 06:51:46;;;;;;;27.08;14.07;;;1.80;99.90;;;2.30;100.00;97146.47;5023000;28;119824;-72
2022/01/28 06:54:15;;;;;;;28.00;14.55;;;1.90;99.90;;;2.48;100.00;97137.31;5022495;28;115916;-69
2022/01/28 06:56:44;;;;;;;23.15;13.65;;;1.90;99.90;;;2.63;100.00;97140.63;5032125;27;128430;-69
2022/01/28 06:59:17;;;;;;;24.83;14.13;;;2.00;99.90;;;2.66;100.00;97148.03;5020872;28;129899;-71
2022/01/28 07:01:45;;;;;;;23.40;14.18;;;2.00;99.90;;;2.63;100.00;97156.69;5021227;28;119178;-70
2022/01/28 07:04:14;;;;;;;22.77;14.00;;;2.00;99.90;;;2.77;99.79;97143.13;5020070;28;116202;-69
2022/01/28 07:06:43;;;;;;;28.95;14.93;;;2.00;99.90;;;2.79;98.87;97147.06;5022445;28;129580;-70
2022/01/28 07:09:11;;;;;;;23.98;13.93;;;2.10;99.90;;;2.95;99.21;97149.25;5022571;28;129455;-70
2022/01/28 07:11:40;;;;;;;26.95;12.98;;;2.10;99.90;;;3.07;97.90;97141.34;5039223;27;117740;-69
2022/01/28 07:14:08;;;;;;;22.10;13.05;;;2.20;99.90;;;3.16;98.39;97138.63;5021748;28;115912;-69
2022/01/28 07:16:38;;;;;;;18.95;11.70;;;2.30;99.90;;;3.10;97.12;97135.34;5019798;28;129974;-69
2022/01/28 07:19:08;;;;;;;18.30;11.95;;;2.20;99.90;;;3.22;97.39;97143.47;5020147;28;129672;-69
2022/01/28 07:21:38;;;;;;;20.17;12.23;;;2.30;99.90;;;3.46;97.20;97142.16;5022629;28;120389;-70
2022/01/28 07:24:07;;;;;;;22.70;13.18;;;2.40;99.90;;;3.73;95.14;97145.50;5021046;28;115386;-70
2022/01/28 07:26:35;;;;;;;26.08;13.63;;;2.50;99.90;;;3.66;95.80;97139.84;5019996;28;128155;-69
2022/01/28 07:29:04;;;;;;;23.52;14.25;;;2.50;99.90;;;3.42;96.42;97146.56;5021044;28;130019;-71
2022/01/28 07:31:33;;;;;;;22.70;14.18;;;2.40;99.90;;;3.27;97.13;97144.41;5021053;28;118826;-70
2022/01/28 07:34:03;;;;;;;24.08;13.32;;;2.30;99.90;;;3.29;96.27;97136.84;5020893;28;116177;-70
2022/01/28 07:36:31;;;;;;;22.63;13.65;;;2.30;99.90;;;3.27;96.39;97139.06;5022282;28;130895;-71
2022/01/28 07:39:00;;;;;;;21.95;13.13;;;2.30;99.90;;;3.40;96.99;97132.72;5022940;28;129584;-70
2022/01/28 07:41:29;;;;;;;22.02;12.30;;;2.30;99.90;;;3.04;97.71;97126.69;5019565;28;119152;-70
2022/01/28 07:43:57;;;;;;;18.55;12.25;;;2.30;99.90;;;3.15;96.70;97143.19;5021718;28;116582;-69
2022/01/28 07:46:25;;;;;;;26.35;14.07;;;2.30;99.90;;;3.24;96.38;97135.91;5018137;28;130323;-70
2022/01/28 07:48:54;;;;;;;20.27;11.80;;;2.30;99.90;;;3.19;96.67;97141.44;5019887;28;129817;-70
2022/01/28 07:51:25;;;;;;;21.95;12.07;;;2.30;99.90;;;3.08;97.22;97142.91;5012476;28;119216;-69
2022/01/28 07:53:53;;;;;;;21.25;11.95;;;2.30;99.90;;;2.95;97.95;97143.88;5021617;28;116330;-69
2022/01/28 07:56:24;;;;;;;23.27;11.68;;;2.30;99.90;;;3.21;96.78;97141.91;5018600;28;129648;-71
2022/01/28 07:58:52;;;;;;;18.90;10.73;;;2.30;99.90;;;3.42;95.66;97146.56;5021263;28;129808;-70
2022/01/28 08:01:21;;;;;;;18.13;10.95;;;2.40;99.90;;;3.26;96.10;97142.84;5021739;28;118826;-68
2022/01/28 08:03:49;;;;;;;18.05;10.88;;;2.30;99.90;;;3.14;97.23;97144.28;5019552;28;116231;-69
2022/01/28 08:06:18;;;;;;;18.88;11.50;;;2.30;99.90;;;3.10;97.09;97146.06;5018425;28;129985;-69
2022/01/28 08:08:48;;;;;;;17.65;10.70;;;2.30;99.90;;;2.98;98.15;97145.94;5015249;28;129786;-70
2022/01/28 08:11:16;;;;;;;15.82;10.68;;;2.30;99.90;;;3.21;97.34;97144.59;5024107;28;118689;-69
2022/01/28 08:13:44;;;;;;;15.07;10.27;;;2.40;99.90;;;3.41;95.68;97156.53;5023299;28;116122;-70
2022/01/28 08:16:13;;;;;;;16.55;10.00;;;2.40;97.50;;;3.65;94.76;97140.97;5022462;28;129860;-70
2022/01/28 08:18:41;;;;;;;15.13;8.82;;;2.60;96.30;;;3.60;93.95;97148.06;5022891;28;130045;-70
2022/01/28 08:21:10;;;;;;;18.25;10.35;;;2.60;86.90;;;3.68;94.85;97138.41;5024001;28;119178;-70
2022/01/28 08:23:39;;;;;;;16.33;10.23;;;2.70;83.20;;;4.08;92.56;97139.91;5023023;28;115977;-70
2022/01/28 08:26:11;;;;;;;16.88;9.88;;;2.80;85.00;;;4.14;90.99;97149.34;5022916;28;130034;-70
2022/01/28 08:28:41;;;;;;;16.98;9.63;;;2.80;78.70;;;4.26;91.46;97157.47;5023184;28;130040;-70
2022/01/28 08:31:10;;;;;;;13.30;9.18;;;2.90;86.70;;;4.19;91.52;97151.84;5022909;28;118850;-70
2022/01/28 08:33:38;;;;;;;16.75;9.00;;;2.80;76.80;;;4.42;90.06;97148.81;5023348;28;116036;-70
2022/01/28 08:36:07;;;;;;;14.57;9.18;;;3.00;81.40;;;4.41;90.27;97147.25;5024767;28;129187;-70
2022/01/28 08:38:39;;;;;;;15.65;8.85;;;3.00;71.90;;;4.81;89.19;97149.44;5024697;28;129809;-70
2022/01/28 08:41:11;;;;;;;14.38;9.25;;;3.20;73.20;;;5.17;87.08;97156.03;5025804;28;118977;-70
2022/01/28 08:43:40;;;;;;;13.80;9.38;;;3.40;71.40;;;5.43;86.27;97144.97;5023453;28;114596;-70
2022/01/28 08:46:10;;;;;;;12.52;8.57;;;3.50;65.60;;;5.42;85.11;97148.78;5023328;28;130384;-71
2022/01/28 08:48:38;;;;;;;14.25;8.40;;;3.50;58.60;;;5.10;85.42;97150.44;5021634;28;130286;-71
2022/01/28 08:51:07;;;;;;;15.52;8.48;;;3.50;42.60;;;5.16;85.43;97149.09;5024709;28;119055;-70
2022/01/28 08:53:39;;;;;;;12.95;8.50;;;3.50;40.90;;;5.25;84.14;97152.47;5024703;28;114010;-71
2022/01/28 08:56:09;;;;;;;15.18;8.80;;;3.50;47.30;;;5.38;84.08;97151.38;5025650;28;129705;-70
2022/01/28 08:58:38;;;;;;;15.02;10.07;;;3.60;46.30;;;5.46;84.55;97148.91;5023439;28;129936;-71
2022/01/28 09:01:06;;;;;;;14.85;10.13;;;3.70;49.70;;;5.57;83.50;97148.13;5024208;28;118671;-71
2022/01/28 09:03:35;;;;;;;14.80;9.80;;;3.70;39.90;;;5.24;84.09;97156.28;5022606;28;116320;-71
2022/01/28 09:06:03;;;;;;;14.65;9.95;;;3.50;40.30;;;4.81;85.93;97149.44;5024665;28;129431;-70
2022/01/28 09:08:32;;;;;;;13.40;9.25;;;3.30;41.00;;;4.45;87.31;97137.44;5024586;28;131271;-70
2022/01/28 09:11:28;;;;;;;13.45;9.40;;;3.10;43.10;;;4.18;88.51;97142.22;5023255;28;118735;-70
2022/01/28 09:13:50;;;;;;;15.35;8.70;;;2.90;51.20;;;4.23;88.42;97136.63;5026207;28;115447;-71
2022/01/28 09:16:21;;;;;;;14.35;8.93;;;3.00;55.20;;;4.31;89.00;97138.47;5023868;28;129349;-70
2022/01/28 09:18:49;;;;;;;13.30;8.52;;;3.00;50.90;;;4.51;87.56;97141.47;5021714;28;129755;-70
2022/01/28 09:21:20;;;;;;;12.82;8.23;;;3.10;51.70;;;4.43;87.48;97139.66;5021449;28;119137;-70
2022/01/28 09:23:49;;;;;;;12.10;7.38;;;3.10;48.00;;;4.37;87.89;97140.97;5024780;28;115020;-70
2022/01/28 09:26:17;;;;;;;11.57;7.07;;;3.10;47.30;;;4.45;87.74;97137.44;5021254;28;129710;-71
2022/01/28 09:28:45;;;;;;;12.98;7.88;;;3.10;44.70;;;4.60;87.28;97144.09;5022410;28;130930;-70
2022/01/28 09:31:16;;;;;;;12.65;7.70;;;3.20;46.00;;;4.68;86.80;97151.28;5021779;28;118985;-70
2022/01/28 09:33:45;;;;;;;10.95;7.03;;;3.20;42.90;;;4.73;86.79;97142.25;5015143;28;114776;-70
2022/01/28 09:36:13;;;;;;;11.98;7.25;;;3.20;42.80;;;4.65;86.63;97147.34;5021447;28;130156;-71
2022/01/28 09:38:42;;;;;;;10.32;7.82;;;3.20;43.80;;;5.01;86.49;97137.84;5016909;28;129475;-70
2022/01/28 09:41:11;;;;;;;9.77;7.38;;;3.40;51.70;;;5.14;85.65;97140.56;5023862;28;119655;-70
2022/01/28 09:43:41;;;;;;;11.70;7.78;;;3.50;50.10;;;5.39;84.50;97134.13;5041195;27;115740;-70
2022/01/28 09:46:10;;;;;;;11.43;7.35;;;3.60;47.60;;;5.49;83.96;97138.25;5023066;28;129503;-70
2022/01/28 09:48:41;;;;;;;9.75;6.70;;;3.70;39.60;;;5.44;83.95;97143.88;5023431;28;129034;-70
2022/01/28 09:51:09;;;;;;;10.50;6.35;;;3.70;39.10;;;5.06;84.11;97133.38;5022612;28;119086;-70
2022/01/28 09:53:39;;;;;;;11.30;7.03;;;3.30;34.20;;;4.79;86.12;97130.19;5021949;28;115159;-70
2022/01/28 09:56:07;;;;;;;12.80;7.07;;;3.30;41.10;;;4.99;86.04;97137.41;5021784;28;129811;-70
2022/01/28 09:58:36;;;;;;;11.55;7.10;;;3.30;47.10;;;4.83;86.41;97137.25;5021782;28;130176;-71
2022/01/28 10:01:05;;;;;;;10.93;7.28;;;3.40;43.40;;;5.65;84.51;97141.06;5021864;28;119444;-70
2022/01/28 10:03:37;;;;;;;8.75;6.40;;;3.70;54.10;;;5.73;83.03;97140.19;5021068;28;115362;-70
2022/01/28 10:06:07;;;;;;;10.18;6.90;;;3.80;43.50;;;5.65;82.31;97132.22;5021397;28;130421;-69
2022/01/28 10:08:36;;;;;;;10.98;6.72;;;3.70;36.30;;;5.40;83.24;97132.97;5021163;28;129852;-69
2022/01/28 10:11:09;;;;;;;10.10;6.88;;;3.60;35.30;;;5.26;83.94;97137.91;5012119;28;119517;-70
2022/01/28 10:13:42;;;;;;;11.00;6.95;;;3.40;38.40;;;5.19;84.58;97130.38;5023306;28;115782;-70
2022/01/28 10:16:14;;;;;;;12.48;7.72;;;3.40;43.20;;;5.00;85.34;97133.59;5022666;28;130312;-71
2022/01/28 10:18:54;;;;;;;11.80;7.40;;;3.40;46.50;;;5.06;85.63;97133.38;5023286;28;129625;-71
2022/01/28 10:21:35;;;;;;;11.73;7.38;;;3.40;47.70;;;5.24;84.69;97129.38;5019743;28;119110;-71
2022/01/28 10:24:14;;;;;;;12.48;7.55;;;3.50;45.40;;;5.30;84.71;97122.69;5021718;28;115165;-70
2022/01/28 10:26:47;;;;;;;11.32;6.80;;;3.50;44.80;;;5.45;84.31;97126.59;5020659;28;129993;-71
2022/01/28 10:29:19;;;;;;;8.65;6.20;;;3.60;46.40;;;5.27;83.60;97139.47;5039684;27;130441;-71
2022/01/28 10:31:52;;;;;;;10.15;6.95;;;3.50;39.20;;;5.07;84.83;97130.38;5020084;28;119376;-68
2022/01/28 10:34:25;;;;;;;10.18;6.55;;;3.40;42.10;;;5.00;85.17;97136.28;5022900;28;114176;-68
2022/01/28 10:37:15;;;;;;;10.27;6.97;;;3.30;40.90;;;4.68;85.73;97130.56;5016641;28;128863;-73
2022/01/28 10:39:49;;;;;;;9.63;6.28;;;3.10;44.40;;;4.37;88.04;97135.59;5014352;28;129793;-70
2022/01/28 10:42:20;;;;;;;9.63;6.32;;;3.00;47.90;;;4.43;88.02;97136.97;5020337;28;119824;-70
2022/01/28 10:44:58;;;;;;;13.27;7.20;;;3.00;52.30;;;4.30;88.92;97136.91;5024065;27;115877;-70
2022/01/28 10:47:39;;;;;;;10.80;6.55;;;3.00;58.40;;;4.23;88.88;97130.50;5019849;28;129770;-70
2022/01/28 10:50:26;;;;;;;10.93;6.25;;;2.90;61.50;;;4.30;88.66;97139.59;5023328;28;130142;-68
2022/01/28 10:53:07;;;;;;;13.52;7.28;;;2.90;63.20;;;4.34;88.82;97138.94;5021799;28;119997;-69
2022/01/28 10:55:37;;;;;;;12.10;7.40;;;3.00;65.40;;;4.36;88.49;97140.16;5023375;28;116026;-69
2022/01/28 10:58:08;;;;;;;12.45;7.82;;;3.00;60.40;;;4.43;88.79;97139.66;5023036;28;129838;-69
2022/01/28 11:00:39;;;;;;;15.52;9.45;;;3.00;62.50;;;4.51;88.79;97146.84;5018952;28;130511;-69
2022/01/28 11:03:12;;;;;;;13.15;9.00;;;3.10;60.10;;;4.80;87.59;97145.16;5023917;28;119447;-69
2022/01/28 11:05:43;;;;;;;13.75;8.55;;;3.20;60.00;;;5.12;86.79;97143.59;5021423;28;116595;-69
2022/01/28 11:08:16;;;;;;;9.98;7.00;;;3.40;61.20;;;5.22;85.34;97147.78;5020235;28;129672;-70
2022/01/28 11:10:45;;;;;;;10.38;6.38;;;3.50;54.40;;;5.08;86.16;97141.88;5020720;28;130495;-71
2022/01/28 11:13:14;;;;;;;14.13;6.90;;;3.40;49.50;;;5.19;85.54;97135.00;5020393;28;119125;-69
2022/01/28 11:15:43;;;;;;;9.00;6.43;;;3.50;52.30;;;5.13;85.13;97145.16;5020645;28;114761;-70